createdAt,value
2023-02-20T00:02:07.348Z,3.50
2023-02-20T00:04:37.263Z,3.83
2023-02-20T00:07:07.137Z,3.53
2023-02-20T00:09:36.982Z,3.65
2023-02-20T00:12:09.719Z,3.63
2023-02-20T00:14:39.574Z,3.13
2023-02-20T00:17:11.947Z,3.33
2023-02-20T00:19:42.303Z,3.63
2023-02-20T00:22:12.150Z,3.70
2023-02-20T00:24:41.995Z,4.13
2023-02-20T00:27:15.290Z,3.70
2023-02-20T00:29:46.932Z,4.20
2023-02-20T00:32:17.341Z,4.03
2023-02-20T00:34:47.213Z,3.85
2023-02-20T00:37:17.339Z,4.30
2023-02-20T00:39:47.196Z,4.13
2023-02-20T00:42:19.726Z,4.00
2023-02-20T00:44:49.587Z,4.43
2023-02-20T00:47:19.564Z,4.03
2023-02-20T00:49:49.448Z,4.55
2023-02-20T00:52:19.532Z,4.50
2023-02-20T00:54:49.410Z,4.43
2023-02-20T00:57:21.918Z,4.47
2023-02-20T00:59:51.798Z,5.15
2023-02-20T01:02:21.681Z,4.65
2023-02-20T01:04:51.602Z,4.85
2023-02-20T01:07:21.453Z,4.38
2023-02-20T01:09:51.384Z,4.82
2023-02-20T01:12:23.863Z,4.88
2023-02-20T01:14:53.742Z,5.45
2023-02-20T01:17:24.242Z,5.05
2023-02-20T01:19:55.925Z,5.43
2023-02-20T01:22:25.829Z,5.65
2023-02-20T01:24:55.670Z,5.90
2023-02-20T01:27:28.107Z,5.93
2023-02-20T01:29:57.951Z,5.57
2023-02-20T01:32:27.838Z,5.30
2023-02-20T01:34:57.731Z,5.85
2023-02-20T01:37:27.667Z,5.65
2023-02-20T01:39:57.651Z,5.82
2023-02-20T01:42:34.784Z,5.90
2023-02-20T01:45:28.698Z,5.90
2023-02-20T01:48:00.192Z,5.97
2023-02-20T01:50:35.193Z,6.00
2023-02-20T01:53:09.879Z,5.90
2023-02-20T01:58:20.835Z,5.63
2023-02-20T02:00:50.806Z,5.95
2023-02-20T02:03:25.419Z,5.93
2023-02-20T02:06:01.965Z,5.45
2023-02-20T02:08:32.665Z,6.00
2023-02-20T02:11:05.466Z,5.82
2023-02-20T02:13:40.483Z,5.90
2023-02-20T02:16:30.979Z,6.07
2023-02-20T02:19:08.222Z,6.15
2023-02-20T02:22:20.050Z,6.00
2023-02-20T02:25:21.399Z,5.80
2023-02-20T02:28:19.597Z,6.53
2023-02-20T02:31:28.602Z,5.88
2023-02-20T02:34:30.116Z,6.03
2023-02-20T02:37:10.757Z,5.35
2023-02-20T02:39:49.495Z,5.25
2023-02-20T02:42:28.098Z,6.30
2023-02-20T02:45:04.872Z,5.82
2023-02-20T02:47:40.680Z,5.88
2023-02-20T02:50:19.128Z,5.93
2023-02-20T02:52:53.608Z,6.07
2023-02-20T02:55:27.630Z,5.88
2023-02-20T02:57:58.048Z,6.18
2023-02-20T03:00:31.938Z,5.80
2023-02-20T03:03:09.184Z,6.83
2023-02-20T03:05:46.662Z,6.65
2023-02-20T03:08:36.990Z,6.07
2023-02-20T03:11:10.653Z,6.53
2023-02-20T03:13:58.058Z,6.45
2023-02-20T03:16:35.923Z,6.72
2023-02-20T03:19:08.187Z,6.53
2023-02-20T03:21:39.430Z,7.15
2023-02-20T03:24:14.694Z,6.18
2023-02-20T03:26:46.606Z,7.00
2023-02-20T03:29:28.045Z,6.05
2023-02-20T03:32:16.785Z,6.70
2023-02-20T03:35:02.087Z,6.47
2023-02-20T03:37:49.321Z,6.47
2023-02-20T03:40:36.608Z,7.45
2023-02-20T03:43:26.149Z,6.80
2023-02-20T03:46:02.560Z,6.28
2023-02-20T03:48:39.372Z,6.80
2023-02-20T03:51:22.777Z,7.50
2023-02-20T03:53:53.291Z,7.00
2023-02-20T03:56:30.311Z,6.75
2023-02-20T03:59:06.885Z,7.60
2023-02-20T04:01:38.165Z,7.30
2023-02-20T04:04:09.262Z,7.22
2023-02-20T04:06:40.990Z,7.72
2023-02-20T04:09:15.815Z,7.32
2023-02-20T04:11:52.862Z,7.13
2023-02-20T04:14:25.573Z,7.50
2023-02-20T04:17:02.796Z,7.00
2023-02-20T04:19:32.901Z,8.13
2023-02-20T04:22:06.101Z,7.32
2023-02-20T04:24:43.558Z,8.02
2023-02-20T04:27:16.208Z,7.97
2023-02-20T04:29:46.184Z,8.77
2023-02-20T04:32:16.464Z,8.18
2023-02-20T04:34:46.601Z,8.68
2023-02-20T04:37:19.662Z,8.82
2023-02-20T04:39:50.237Z,8.30
2023-02-20T04:42:22.788Z,8.98
2023-02-20T04:44:52.644Z,9.35
2023-02-20T04:47:22.802Z,9.32
2023-02-20T04:49:52.671Z,9.23
2023-02-20T04:52:24.551Z,8.13
2023-02-20T04:54:54.806Z,9.73
2023-02-20T04:57:27.227Z,8.55
2023-02-20T04:59:57.086Z,9.00
2023-02-20T05:02:26.950Z,10.02
2023-02-20T05:04:56.786Z,9.57
2023-02-20T05:07:26.637Z,8.48
2023-02-20T05:09:56.609Z,9.25
2023-02-20T05:12:29.054Z,9.15
2023-02-20T05:14:58.903Z,8.95
2023-02-20T05:17:28.787Z,8.70
2023-02-20T05:19:58.634Z,9.10
2023-02-20T05:22:25.885Z,9.52
2023-02-20T05:24:55.840Z,9.05
2023-02-20T05:27:29.889Z,9.50
2023-02-20T05:30:01.852Z,9.80
2023-02-20T05:32:33.807Z,9.35
2023-02-20T05:35:03.687Z,9.93
2023-02-20T05:37:33.918Z,9.30
2023-02-20T05:40:05.854Z,9.25
2023-02-20T05:42:38.300Z,9.98
2023-02-20T05:45:09.232Z,9.93
2023-02-20T05:47:40.869Z,9.55
2023-02-20T05:50:11.556Z,9.52
2023-02-20T05:52:41.430Z,9.68
2023-02-20T05:55:12.080Z,10.65
2023-02-20T05:57:44.517Z,10.07
2023-02-20T06:00:16.393Z,9.63
2023-02-20T06:02:46.220Z,10.05
2023-02-20T06:05:17.176Z,10.88
2023-02-20T06:07:47.057Z,9.80
2023-02-20T06:10:20.580Z,10.32
2023-02-20T06:12:53.022Z,10.18
2023-02-20T06:15:22.934Z,9.60
2023-02-20T06:17:52.844Z,10.32
2023-02-20T06:20:23.484Z,9.98
2023-02-20T06:22:54.532Z,10.10
2023-02-20T06:25:24.370Z,10.23
2023-02-20T06:27:56.858Z,10.45
2023-02-20T06:30:27.693Z,10.65
2023-02-20T06:32:57.576Z,10.35
2023-02-20T06:35:27.503Z,10.48
2023-02-20T06:37:57.354Z,10.73
2023-02-20T06:40:27.310Z,10.20
2023-02-20T06:42:59.713Z,10.57
2023-02-20T06:45:29.548Z,9.05
2023-02-20T06:47:59.394Z,10.30
2023-02-20T06:50:29.274Z,10.50
2023-02-20T06:52:59.178Z,10.73
2023-02-20T06:55:29.321Z,10.77
2023-02-20T06:58:01.906Z,11.70
2023-02-20T07:00:31.856Z,11.07
2023-02-20T07:03:01.900Z,11.27
2023-02-20T07:05:31.968Z,11.75
2023-02-20T07:08:03.327Z,11.05
2023-02-20T07:10:33.187Z,10.98
2023-02-20T07:13:06.353Z,12.10
2023-02-20T07:15:36.249Z,13.30
2023-02-20T07:18:06.208Z,12.60
2023-02-20T07:20:36.053Z,11.98
2023-02-20T07:23:06.158Z,12.90
2023-02-20T07:25:36.075Z,13.10
2023-02-20T07:28:09.233Z,11.88
2023-02-20T07:30:39.349Z,12.88
2023-02-20T07:33:09.825Z,13.65
2023-02-20T07:35:39.767Z,13.40
2023-02-20T07:38:09.939Z,13.52
2023-02-20T07:40:40.292Z,13.80
2023-02-20T07:43:12.915Z,13.20
2023-02-20T07:45:42.888Z,13.18
2023-02-20T07:48:12.772Z,13.02
2023-02-20T07:50:42.720Z,13.65
2023-02-20T07:53:13.451Z,12.23
2023-02-20T07:55:43.353Z,12.18
2023-02-20T07:58:15.868Z,13.27
2023-02-20T08:00:45.830Z,12.80
2023-02-20T08:03:15.669Z,12.30
2023-02-20T08:05:49.709Z,11.93
2023-02-20T08:08:20.004Z,12.38
2023-02-20T08:10:57.057Z,11.68
2023-02-20T08:13:32.625Z,11.23
2023-02-20T08:16:02.509Z,11.15
2023-02-20T08:18:32.648Z,11.73
2023-02-20T08:21:02.518Z,10.50
2023-02-20T08:23:32.397Z,10.18
2023-02-20T08:26:03.090Z,11.90
2023-02-20T08:28:35.491Z,11.93
2023-02-20T08:31:05.792Z,10.07
2023-02-20T08:33:35.704Z,10.60
2023-02-20T08:36:06.205Z,10.50
2023-02-20T08:38:39.657Z,11.35
2023-02-20T08:41:12.229Z,10.07
2023-02-20T08:43:47.254Z,9.70
2023-02-20T08:46:17.418Z,10.63
2023-02-20T08:48:47.831Z,9.48
2023-02-20T08:51:22.065Z,10.00
2023-02-20T08:53:51.949Z,9.88
2023-02-20T08:56:22.428Z,9.98
2023-02-20T08:58:56.405Z,9.52
2023-02-20T09:01:26.289Z,9.90
2023-02-20T09:03:56.149Z,7.70
2023-02-20T09:06:28.391Z,9.38
2023-02-20T09:08:58.671Z,9.43
2023-02-20T09:11:28.588Z,9.88
2023-02-20T09:14:01.015Z,9.40
2023-02-20T09:16:30.923Z,8.95
2023-02-20T09:19:01.129Z,6.63
2023-02-20T09:21:31.323Z,8.52
2023-02-20T09:24:01.217Z,8.38
2023-02-20T09:26:31.069Z,7.57
2023-02-20T09:29:03.518Z,8.77
2023-02-20T09:31:33.500Z,7.65
2023-02-20T09:34:04.340Z,7.63
2023-02-20T09:36:34.232Z,7.55
2023-02-20T09:39:04.396Z,6.57
2023-02-20T09:42:05.777Z,7.55
2023-02-20T09:44:47.756Z,5.40
2023-02-20T09:47:39.013Z,6.45
2023-02-20T09:50:17.956Z,3.60
2023-02-20T09:52:56.946Z,5.05
2023-02-20T09:55:39.073Z,4.47
2023-02-20T09:58:10.477Z,5.68
2023-02-20T10:00:43.312Z,5.22
2023-02-20T10:03:25.206Z,5.20
2023-02-20T10:05:56.933Z,4.80
2023-02-20T10:08:27.069Z,4.55
2023-02-20T10:11:00.835Z,5.60
2023-02-20T10:13:55.596Z,5.22
2023-02-20T10:16:36.034Z,5.40
2023-02-20T10:19:18.325Z,3.35
2023-02-20T10:21:59.682Z,5.05
2023-02-20T10:24:47.860Z,3.55
2023-02-20T10:27:30.578Z,5.28
2023-02-20T10:30:02.783Z,4.43
2023-02-20T10:32:42.824Z,3.72
2023-02-20T10:35:16.273Z,4.05
2023-02-20T10:37:50.954Z,1.95
2023-02-20T10:43:03.827Z,4.07
2023-02-20T10:45:47.380Z,4.05
2023-02-20T10:48:20.109Z,3.00
2023-02-20T10:50:55.251Z,2.75
2023-02-20T10:53:34.527Z,3.95
2023-02-20T10:56:11.368Z,3.78
2023-02-20T10:58:47.644Z,3.40
2023-02-20T11:01:23.143Z,4.65
2023-02-20T11:04:04.167Z,3.92
2023-02-20T11:06:39.968Z,3.15
2023-02-20T11:09:10.656Z,4.75
2023-02-20T11:11:44.254Z,2.97
2023-02-20T11:14:19.188Z,2.33
2023-02-20T11:16:55.914Z,3.70
2023-02-20T11:19:35.346Z,3.10
2023-02-20T11:22:05.245Z,3.38
2023-02-20T11:24:37.519Z,2.80
2023-02-20T11:27:17.589Z,2.85
2023-02-20T11:29:53.116Z,3.33
2023-02-20T11:32:38.062Z,2.33
2023-02-20T11:35:30.083Z,3.97
2023-02-20T11:38:34.501Z,2.25
2023-02-20T11:41:34.274Z,4.07
2023-02-20T11:44:28.686Z,3.65
2023-02-20T11:47:24.904Z,3.33
2023-02-20T11:50:21.056Z,4.43
2023-02-20T11:53:07.914Z,5.13
2023-02-20T11:55:38.283Z,3.83
2023-02-20T11:58:08.237Z,5.35
2023-02-20T12:00:49.385Z,4.10
2023-02-20T12:03:25.950Z,3.85
2023-02-20T12:06:00.289Z,3.33
2023-02-20T12:08:56.165Z,1.52
2023-02-20T12:11:29.608Z,1.35
2023-02-20T12:14:02.137Z,6.38
2023-02-20T12:16:48.002Z,4.93
2023-02-20T12:19:21.940Z,3.30
2023-02-20T12:22:07.982Z,2.30
2023-02-20T12:24:54.350Z,5.13
2023-02-20T12:27:43.824Z,4.85
2023-02-20T12:30:38.821Z,2.20
2023-02-20T12:33:39.939Z,3.20
2023-02-20T12:36:23.812Z,4.88
2023-02-20T12:39:02.500Z,5.97
2023-02-20T12:41:49.947Z,2.80
2023-02-20T12:44:54.048Z,3.15
2023-02-20T12:47:33.208Z,3.20
2023-02-20T12:50:45.478Z,5.32
2023-02-20T12:53:29.211Z,6.53
2023-02-20T12:56:19.748Z,4.03
2023-02-20T12:58:54.743Z,4.07
2023-02-20T13:01:38.870Z,3.85
2023-02-20T13:04:25.021Z,6.50
2023-02-20T13:09:34.690Z,3.95
2023-02-20T13:12:13.480Z,4.65
2023-02-20T13:15:01.575Z,5.85
2023-02-20T13:17:41.596Z,4.18
2023-02-20T13:20:21.929Z,5.15
2023-02-20T13:23:06.378Z,4.35
2023-02-20T13:25:44.494Z,4.45
2023-02-20T13:28:43.182Z,5.15
2023-02-20T13:31:23.477Z,4.10
2023-02-20T13:34:30.458Z,5.88
2023-02-20T13:37:00.864Z,8.00
2023-02-20T13:39:48.411Z,5.95
2023-02-20T13:42:38.785Z,7.00
2023-02-20T13:45:41.591Z,4.22
2023-02-20T13:48:42.594Z,9.80
2023-02-20T13:51:40.555Z,8.45
2023-02-20T13:54:31.799Z,7.43
2023-02-20T13:57:05.145Z,10.13
2023-02-20T13:59:37.931Z,6.57
2023-02-20T14:02:20.647Z,9.25
2023-02-20T14:05:00.039Z,8.77
2023-02-20T14:07:40.601Z,10.75
2023-02-20T14:10:22.575Z,9.88
2023-02-20T14:13:01.320Z,6.65
2023-02-20T14:15:34.673Z,10.55
2023-02-20T14:18:04.848Z,6.13
2023-02-20T14:20:38.595Z,8.98
2023-02-20T14:23:24.455Z,6.73
2023-02-20T14:26:01.314Z,8.98
2023-02-20T14:28:33.260Z,8.77
2023-02-20T14:31:28.806Z,8.43
2023-02-20T14:34:01.874Z,7.63
2023-02-20T14:36:58.253Z,7.18
2023-02-20T14:39:45.321Z,6.22
2023-02-20T14:42:19.018Z,6.20
2023-02-20T14:44:52.306Z,3.95
2023-02-20T14:47:22.206Z,5.18
2023-02-20T14:49:52.123Z,6.30
2023-02-20T14:52:26.597Z,8.85
2023-02-20T14:55:04.444Z,9.82
2023-02-20T14:57:34.881Z,9.55
2023-02-20T15:00:14.810Z,7.32
2023-02-20T15:02:49.463Z,6.43
2023-02-20T15:07:52.646Z,8.73
2023-02-20T15:10:40.368Z,5.70
2023-02-20T15:13:13.811Z,8.35
2023-02-20T15:15:48.542Z,5.00
2023-02-20T15:18:20.694Z,4.43
2023-02-20T15:20:51.871Z,5.38
2023-02-20T15:23:32.688Z,5.00
2023-02-20T15:26:32.547Z,5.13
2023-02-20T15:29:19.382Z,7.82
2023-02-20T15:31:50.090Z,5.65
2023-02-20T15:34:25.028Z,7.32
2023-02-20T15:36:55.258Z,6.32
2023-02-20T15:39:25.606Z,7.32
2023-02-20T15:41:59.068Z,5.80
2023-02-20T15:44:30.535Z,6.13
2023-02-20T15:47:00.885Z,6.13
2023-02-20T15:49:30.760Z,4.90
2023-02-20T15:52:08.967Z,4.20
2023-02-20T15:54:39.951Z,6.63
2023-02-20T15:57:19.431Z,4.63
2023-02-20T15:59:50.269Z,4.80
2023-02-20T16:02:24.764Z,6.25
2023-02-20T16:04:55.271Z,6.72
2023-02-20T16:07:25.223Z,4.97
2023-02-20T16:09:55.094Z,6.88
2023-02-20T16:12:33.413Z,6.45
2023-02-20T16:15:03.359Z,4.80
2023-02-20T16:17:39.101Z,5.85
2023-02-20T16:20:19.419Z,5.10
2023-02-20T16:22:49.693Z,7.68
2023-02-20T16:25:22.904Z,4.45
2023-02-20T16:27:58.854Z,6.95
2023-02-20T16:30:34.622Z,6.00
2023-02-20T16:33:05.824Z,4.03
2023-02-20T16:35:35.681Z,7.22
2023-02-20T16:38:05.534Z,8.25
2023-02-20T16:40:35.430Z,5.60
2023-02-20T16:43:08.071Z,4.03
2023-02-20T16:45:38.538Z,6.72
2023-02-20T16:48:17.655Z,5.43
2023-02-20T16:50:53.162Z,7.05
2023-02-20T16:53:23.725Z,8.23
2023-02-20T16:55:55.150Z,7.65
2023-02-20T16:58:27.578Z,5.70
2023-02-20T17:00:58.319Z,9.45
2023-02-20T17:03:28.311Z,8.73
2023-02-20T17:05:59.656Z,7.25
2023-02-20T17:08:31.335Z,5.68
2023-02-20T17:11:01.214Z,6.15
2023-02-20T17:13:33.689Z,7.53
2023-02-20T17:16:03.602Z,5.28
2023-02-20T17:18:33.792Z,4.15
2023-02-20T17:21:03.651Z,5.20
2023-02-20T17:23:36.161Z,8.50
2023-02-20T17:26:06.251Z,5.40
2023-02-20T17:28:38.771Z,5.30
2023-02-20T17:31:09.303Z,5.97
2023-02-20T17:33:40.918Z,7.93
2023-02-20T17:36:12.395Z,6.50
2023-02-20T17:38:45.213Z,6.95
2023-02-20T17:41:15.512Z,8.63
2023-02-20T17:43:48.530Z,8.50
2023-02-20T17:46:20.104Z,5.68
2023-02-20T17:48:50.658Z,6.43
2023-02-20T17:51:22.370Z,7.57
2023-02-20T17:53:52.216Z,5.63
2023-02-20T17:56:22.692Z,5.75
2023-02-20T17:58:55.437Z,8.60
2023-02-20T18:01:27.538Z,6.82
2023-02-20T18:03:57.895Z,4.75
2023-02-20T18:06:27.810Z,8.30
2023-02-20T18:08:57.677Z,5.93
2023-02-20T18:11:27.989Z,6.88
2023-02-20T18:14:01.186Z,7.10
2023-02-20T18:16:32.296Z,8.02
2023-02-20T18:19:02.299Z,5.93
2023-02-20T18:21:33.863Z,5.20
2023-02-20T18:24:04.741Z,5.75
2023-02-20T18:26:34.598Z,4.82
2023-02-20T18:29:07.641Z,7.13
2023-02-20T18:31:37.967Z,6.97
2023-02-20T18:34:08.000Z,7.88
2023-02-20T18:36:37.933Z,5.45
2023-02-20T18:39:09.921Z,5.68
2023-02-20T18:41:40.295Z,9.38
2023-02-20T18:44:12.760Z,8.00
2023-02-20T18:46:42.758Z,4.47
2023-02-20T18:49:12.615Z,5.90
2023-02-20T18:51:45.530Z,7.88
2023-02-20T18:54:27.210Z,7.32
2023-02-20T18:56:57.074Z,4.82
2023-02-20T18:59:31.003Z,4.95
2023-02-20T19:02:05.905Z,5.38
2023-02-20T19:04:35.852Z,6.05
2023-02-20T19:07:06.208Z,10.60
2023-02-20T19:09:38.104Z,10.63
2023-02-20T19:12:11.897Z,5.22
2023-02-20T19:14:44.372Z,11.20
2023-02-20T19:17:16.059Z,10.90
2023-02-20T19:19:45.954Z,9.68
2023-02-20T19:22:15.791Z,5.80
2023-02-20T19:24:45.659Z,3.85
2023-02-20T19:27:15.517Z,9.05
2023-02-20T19:29:48.430Z,7.97
2023-02-20T19:32:19.294Z,4.82
2023-02-20T19:34:49.343Z,7.00
2023-02-20T19:37:20.101Z,9.38
2023-02-20T19:39:50.088Z,9.25
2023-02-20T19:42:19.949Z,9.18
2023-02-20T19:44:53.514Z,5.63
2023-02-20T19:47:23.514Z,8.70
2023-02-20T19:49:53.629Z,7.05
2023-02-20T19:52:23.657Z,8.93
2023-02-20T19:54:53.491Z,7.47
2023-02-20T19:57:24.299Z,7.47
2023-02-20T19:59:56.784Z,8.93
2023-02-20T20:02:26.794Z,7.75
2023-02-20T20:04:56.670Z,7.22
2023-02-20T20:07:28.650Z,8.63
2023-02-20T20:09:58.510Z,8.75
2023-02-20T20:12:40.891Z,7.00
2023-02-20T20:15:13.502Z,7.57
2023-02-20T20:17:43.591Z,4.25
2023-02-20T20:20:14.538Z,7.10
2023-02-20T20:22:45.354Z,6.47
2023-02-20T20:25:16.068Z,5.22
2023-02-20T20:27:46.393Z,6.20
2023-02-20T20:30:24.800Z,8.30
2023-02-20T20:32:56.694Z,8.00
2023-02-20T20:35:28.518Z,5.25
2023-02-20T20:37:59.020Z,8.48
2023-02-20T20:40:30.732Z,4.65
2023-02-20T20:43:01.006Z,5.93
2023-02-20T20:45:33.450Z,7.38
2023-02-20T20:48:03.332Z,6.00
2023-02-20T20:50:33.195Z,4.20
2023-02-20T20:53:04.013Z,5.63
2023-02-20T20:55:34.098Z,6.80
2023-02-20T20:58:03.998Z,7.47
2023-02-20T21:00:38.719Z,5.10
2023-02-20T21:05:40.920Z,6.32
2023-02-20T21:08:10.882Z,4.60
2023-02-20T21:10:40.851Z,5.13
2023-02-20T21:13:10.880Z,6.68
2023-02-20T21:15:43.404Z,6.63
2023-02-20T21:18:13.297Z,7.30
2023-02-20T21:20:43.246Z,5.43
2023-02-20T21:23:13.504Z,3.58
2023-02-20T21:25:44.123Z,6.05
2023-02-20T21:28:14.028Z,4.40
2023-02-20T21:30:47.627Z,6.72
2023-02-20T21:33:17.967Z,6.63
2023-02-20T21:35:47.865Z,5.95
2023-02-20T21:38:17.711Z,4.38
2023-02-20T21:40:47.548Z,4.95
2023-02-20T21:43:29.958Z,6.88
2023-02-20T21:46:02.397Z,3.95
2023-02-20T21:48:32.266Z,7.55
2023-02-20T21:51:02.123Z,5.65
2023-02-20T21:53:32.095Z,6.53
2023-02-20T21:56:02.269Z,5.90
2023-02-20T21:58:44.630Z,4.38
2023-02-20T22:01:14.571Z,4.97
2023-02-20T22:03:41.889Z,4.88
2023-02-20T22:06:09.029Z,7.55
2023-02-20T22:08:51.412Z,4.13
2023-02-20T22:11:33.843Z,6.38
2023-02-20T22:14:16.373Z,4.60
2023-02-20T22:17:01.290Z,6.90
2023-02-20T22:19:43.645Z,6.95
2023-02-20T22:22:26.026Z,3.78
2023-02-20T22:25:08.431Z,5.63
2023-02-20T22:27:50.797Z,6.40
2023-02-20T22:30:33.315Z,6.47
2023-02-20T22:33:18.274Z,5.00
2023-02-20T22:38:43.038Z,5.72
2023-02-20T22:41:25.411Z,7.10
2023-02-20T22:44:07.776Z,3.83
2023-02-20T22:46:50.157Z,6.88
2023-02-20T22:49:35.120Z,3.72
2023-02-20T22:52:17.519Z,6.88
2023-02-20T22:55:05.146Z,5.22
2023-02-20T22:57:48.042Z,5.70
2023-02-20T23:00:30.893Z,6.78
2023-02-20T23:03:13.253Z,7.00
2023-02-20T23:06:04.976Z,4.93
2023-02-20T23:08:54.030Z,5.95
2023-02-20T23:11:36.389Z,6.35
2023-02-20T23:14:18.731Z,5.60
2023-02-20T23:17:01.105Z,3.88
2023-02-20T23:19:43.469Z,6.22
2023-02-20T23:22:28.437Z,4.72
2023-02-20T23:27:52.982Z,4.53
2023-02-20T23:30:35.412Z,6.97
2023-02-20T23:33:17.821Z,5.88
2023-02-20T23:36:00.219Z,4.47
2023-02-20T23:38:45.160Z,5.20
2023-02-20T23:41:27.545Z,4.60
2023-02-20T23:44:09.922Z,3.42
2023-02-20T23:46:52.337Z,4.80
2023-02-20T23:49:34.695Z,5.70
2023-02-20T23:52:17.210Z,3.80
2023-02-20T23:55:02.129Z,6.10
2023-02-20T23:57:46.300Z,5.35
